Time;durP1;ratioP1;P1;durP2;ratioP2;P2;SDS_P1;SDS_P2;PMS_P1;PMS_P2;Temp;Humidity;BMP_temperature;BMP_pressure;BME280_temperature;BME280_humidity;BME280_pressure;Samples;Min_cycle;Max_cycle;Signal;HPM_P1;HPM_P2
2022/03/17 00:00:16;;;;;;;26.80;23.90;;;;;;;;;;5069011;28;20623;-73
2022/03/17 00:17:55;;;;;;;26.50;23.70;;;;;;;;;;5066209;28;20288;-73
2022/03/17 00:20:31;;;;;;;27.63;23.10;;;;;;;;;;5065396;28;20694;-73
2022/03/17 00:22:57;;;;;;;26.67;23.67;;;;;;;;;;5066023;28;20223;-73
2022/03/17 00:25:23;;;;;;;25.47;22.77;;;;;;;;;;5069032;28;20205;-73
2022/03/17 00:27:49;;;;;;;22.83;20.27;;;;;;;;;;5068569;28;20165;-73
2022/03/17 00:30:15;;;;;;;26.93;23.63;;;;;;;;;;5070267;28;20249;-73
2022/03/17 00:32:41;;;;;;;25.63;22.67;;;;;;;;;;5067675;28;20197;-73
2022/03/17 00:37:53;;;;;;;25.10;22.03;;;;;;;;;;5067862;28;20207;-73
2022/03/17 00:40:19;;;;;;;27.43;24.47;;;;;;;;;;5067965;28;20189;-73
2022/03/17 00:42:45;;;;;;;27.83;23.83;;;;;;;;;;5067455;28;20255;-73
2022/03/17 00:45:12;;;;;;;24.30;21.20;;;;;;;;;;5067632;28;20200;-73
2022/03/17 00:47:39;;;;;;;28.20;23.27;;;;;;;;;;5066062;28;20209;-73
2022/03/17 00:50:07;;;;;;;26.87;23.77;;;;;;;;;;5067659;28;20192;-73
2022/03/17 00:52:33;;;;;;;25.23;22.37;;;;;;;;;;5043493;28;20201;-73
2022/03/17 00:54:59;;;;;;;25.57;22.83;;;;;;;;;;5068365;28;20606;-73
2022/03/17 00:57:25;;;;;;;24.43;21.80;;;;;;;;;;5066444;28;20181;-73
2022/03/17 00:59:51;;;;;;;24.70;21.83;;;;;;;;;;5066399;28;20849;-73
2022/03/17 01:02:17;;;;;;;28.30;25.30;;;;;;;;;;5066427;28;20211;-73
2022/03/17 01:04:43;;;;;;;27.30;24.40;;;;;;;;;;5067838;28;20197;-73
2022/03/17 01:07:10;;;;;;;26.00;22.77;;;;;;;;;;5065905;28;20264;-73
2022/03/17 01:09:36;;;;;;;26.87;22.57;;;;;;;;;;5067715;28;20374;-73
2022/03/17 01:12:03;;;;;;;24.27;21.63;;;;;;;;;;5062553;28;22036;-74
2022/03/17 01:14:29;;;;;;;25.90;22.57;;;;;;;;;;5063437;28;20544;-73
2022/03/17 01:16:56;;;;;;;28.90;24.40;;;;;;;;;;5065570;28;20592;-73
2022/03/17 01:19:22;;;;;;;27.13;24.23;;;;;;;;;;5060044;28;20177;-73
2022/03/17 01:21:49;;;;;;;29.60;25.47;;;;;;;;;;5065441;28;20208;-73
2022/03/17 01:24:16;;;;;;;26.83;23.90;;;;;;;;;;5062609;28;20177;-73
2022/03/17 01:26:42;;;;;;;25.67;22.47;;;;;;;;;;5066433;28;20178;-73
2022/03/17 01:29:08;;;;;;;24.60;21.87;;;;;;;;;;5085779;28;20192;-73
2022/03/17 01:31:35;;;;;;;27.33;23.83;;;;;;;;;;5067673;28;20220;-73
2022/03/17 01:34:01;;;;;;;27.27;24.23;;;;;;;;;;5069970;28;20263;-73
2022/03/17 01:36:27;;;;;;;27.17;24.20;;;;;;;;;;5069998;28;20212;-73
2022/03/17 01:38:54;;;;;;;27.60;24.07;;;;;;;;;;5071056;28;20189;-73
2022/03/17 01:41:20;;;;;;;29.60;25.00;;;;;;;;;;5070591;28;20205;-73
2022/03/17 01:43:46;;;;;;;28.47;24.67;;;;;;;;;;5071234;28;20185;-73
2022/03/17 01:46:15;;;;;;;30.63;26.20;;;;;;;;;;5068502;28;20292;-72
2022/03/17 01:48:43;;;;;;;28.10;25.03;;;;;;;;;;5069247;28;20177;-73
2022/03/17 01:51:10;;;;;;;27.70;24.70;;;;;;;;;;5062472;28;20201;-73
2022/03/17 01:53:37;;;;;;;24.83;22.13;;;;;;;;;;5062862;28;20189;-73
2022/03/17 01:56:03;;;;;;;25.33;22.40;;;;;;;;;;5061613;28;20192;-73
2022/03/17 01:58:30;;;;;;;25.10;22.10;;;;;;;;;;5063738;28;20212;-73
2022/03/17 02:00:56;;;;;;;26.87;24.00;;;;;;;;;;5059453;28;20214;-73
2022/03/17 02:03:23;;;;;;;26.70;23.90;;;;;;;;;;5066627;28;20682;-73
2022/03/17 02:05:51;;;;;;;26.10;23.10;;;;;;;;;;5069206;28;20710;-73
2022/03/17 02:08:17;;;;;;;22.33;19.93;;;;;;;;;;5068488;28;20259;-73
2022/03/17 02:13:42;;;;;;;24.30;21.63;;;;;;;;;;5062773;28;20250;-73
2022/03/17 02:16:08;;;;;;;28.10;24.57;;;;;;;;;;5068728;28;20189;-73
2022/03/17 02:18:34;;;;;;;29.73;26.07;;;;;;;;;;5070769;28;20186;-73
2022/03/17 02:21:00;;;;;;;29.23;26.00;;;;;;;;;;5069372;28;20205;-73
2022/03/17 02:26:13;;;;;;;27.43;24.37;;;;;;;;;;5068641;28;20266;-73
2022/03/17 02:28:39;;;;;;;24.37;21.33;;;;;;;;;;5069171;28;20192;-73
2022/03/17 02:31:06;;;;;;;25.40;21.97;;;;;;;;;;5068376;28;20590;-73
2022/03/17 02:33:32;;;;;;;24.53;21.23;;;;;;;;;;5070087;28;20213;-73
2022/03/17 02:35:58;;;;;;;28.40;24.23;;;;;;;;;;5068209;28;20268;-73
2022/03/17 02:38:24;;;;;;;27.47;24.23;;;;;;;;;;5070107;28;20212;-73
2022/03/17 02:40:52;;;;;;;27.17;23.07;;;;;;;;;;5067666;28;20209;-73
2022/03/17 02:43:19;;;;;;;28.50;24.50;;;;;;;;;;5066228;28;20185;-73
2022/03/17 02:45:46;;;;;;;24.40;20.87;;;;;;;;;;5069313;28;20201;-73
2022/03/17 02:48:12;;;;;;;24.80;22.13;;;;;;;;;;5070186;28;20185;-73
2022/03/17 02:50:38;;;;;;;28.30;24.33;;;;;;;;;;5067459;28;20210;-73
2022/03/17 02:53:08;;;;;;;27.33;23.17;;;;;;;;;;5069097;28;20161;-73
2022/03/17 02:55:43;;;;;;;27.47;23.80;;;;;;;;;;5068366;28;20195;-73
2022/03/17 02:58:10;;;;;;;25.33;22.17;;;;;;;;;;5066867;28;20220;-73
2022/03/17 03:00:36;;;;;;;26.97;23.00;;;;;;;;;;5061889;28;20213;-73
2022/03/17 03:03:03;;;;;;;25.43;21.23;;;;;;;;;;5068436;28;20277;-73
2022/03/17 03:05:30;;;;;;;22.50;19.37;;;;;;;;;;5083354;28;20217;-73
2022/03/17 03:07:56;;;;;;;23.40;20.67;;;;;;;;;;5068978;28;20222;-73
2022/03/17 03:10:22;;;;;;;25.47;22.27;;;;;;;;;;5067395;28;20204;-73
2022/03/17 03:12:48;;;;;;;26.83;22.23;;;;;;;;;;5066992;28;20173;-73
2022/03/17 03:15:14;;;;;;;24.77;22.13;;;;;;;;;;5067337;28;20173;-73
2022/03/17 03:17:41;;;;;;;26.40;22.33;;;;;;;;;;5067409;28;20185;-73
2022/03/17 03:20:07;;;;;;;23.87;21.30;;;;;;;;;;5069288;28;20188;-73
2022/03/17 03:22:39;;;;;;;29.03;25.37;;;;;;;;;;5065704;28;20284;-73
2022/03/17 03:25:06;;;;;;;26.17;23.37;;;;;;;;;;5066779;28;20688;-73
2022/03/17 03:27:32;;;;;;;27.07;23.97;;;;;;;;;;5064602;28;20192;-73
2022/03/17 03:29:59;;;;;;;29.47;25.20;;;;;;;;;;5064503;28;20303;-73
2022/03/17 03:32:27;;;;;;;28.87;24.63;;;;;;;;;;5065145;28;20672;-73
2022/03/17 03:34:53;;;;;;;25.90;22.10;;;;;;;;;;5058417;28;20181;-73
2022/03/17 03:37:23;;;;;;;26.77;23.07;;;;;;;;;;5065693;28;20173;-73
2022/03/17 03:39:54;;;;;;;27.20;24.27;;;;;;;;;;5065105;28;20263;-73
2022/03/17 03:42:20;;;;;;;27.60;23.87;;;;;;;;;;5060404;28;23469;-73
2022/03/17 03:44:47;;;;;;;26.50;23.60;;;;;;;;;;5059130;28;20906;-73
2022/03/17 03:47:14;;;;;;;28.30;25.27;;;;;;;;;;5060628;28;20269;-73
2022/03/17 03:49:41;;;;;;;28.17;22.90;;;;;;;;;;5061661;28;20186;-73
2022/03/17 03:52:14;;;;;;;24.90;21.47;;;;;;;;;;5063167;28;20288;-74
2022/03/17 03:54:41;;;;;;;25.63;21.80;;;;;;;;;;5064411;28;20272;-73
2022/03/17 03:57:07;;;;;;;28.20;23.43;;;;;;;;;;5065028;28;20672;-72
2022/03/17 03:59:34;;;;;;;27.33;23.73;;;;;;;;;;5062026;28;20249;-73
2022/03/17 04:02:05;;;;;;;27.27;23.77;;;;;;;;;;5062602;28;20216;-73
2022/03/17 04:04:31;;;;;;;26.23;23.27;;;;;;;;;;5064550;28;20192;-73
2022/03/17 04:06:59;;;;;;;26.43;22.60;;;;;;;;;;5066379;28;20169;-73
2022/03/17 04:09:27;;;;;;;25.90;20.17;;;;;;;;;;5065014;28;20230;-73
2022/03/17 04:11:56;;;;;;;26.70;22.90;;;;;;;;;;5062230;28;20215;-72
2022/03/17 04:14:23;;;;;;;25.47;22.67;;;;;;;;;;5065016;28;20234;-72
2022/03/17 04:16:49;;;;;;;26.70;23.57;;;;;;;;;;5063180;28;20782;-73
2022/03/17 04:19:15;;;;;;;26.10;23.27;;;;;;;;;;5064940;28;20519;-73
2022/03/17 04:21:42;;;;;;;29.63;24.27;;;;;;;;;;5063279;28;20197;-73
2022/03/17 04:24:08;;;;;;;25.13;22.43;;;;;;;;;;5064595;28;20223;-73
2022/03/17 04:26:35;;;;;;;27.47;23.50;;;;;;;;;;5065875;28;20631;-73
2022/03/17 04:29:01;;;;;;;26.43;22.27;;;;;;;;;;5063040;28;20187;-73
2022/03/17 04:31:29;;;;;;;23.27;20.77;;;;;;;;;;5061967;28;20262;-73
2022/03/17 04:33:55;;;;;;;24.33;20.83;;;;;;;;;;5064423;28;20196;-73
2022/03/17 04:36:22;;;;;;;27.80;23.67;;;;;;;;;;5063241;28;20208;-73
2022/03/17 04:38:48;;;;;;;29.53;24.03;;;;;;;;;;5062138;28;20729;-73
2022/03/17 04:41:15;;;;;;;25.93;21.07;;;;;;;;;;5062017;28;20228;-73
2022/03/17 04:43:41;;;;;;;24.07;21.00;;;;;;;;;;5061171;28;20192;-73
2022/03/17 04:46:08;;;;;;;25.20;21.43;;;;;;;;;;5064454;28;20739;-73
2022/03/17 04:48:34;;;;;;;28.73;23.50;;;;;;;;;;5067675;28;20189;-73
2022/03/17 04:51:00;;;;;;;27.83;22.47;;;;;;;;;;5063468;28;20617;-73
2022/03/17 04:53:32;;;;;;;26.00;23.17;;;;;;;;;;5056951;28;20664;-73
2022/03/17 04:56:01;;;;;;;25.80;21.50;;;;;;;;;;5064230;28;20297;-73
2022/03/17 04:58:28;;;;;;;25.50;22.70;;;;;;;;;;5068557;28;20272;-73
2022/03/17 05:00:55;;;;;;;26.30;22.13;;;;;;;;;;5069738;28;20720;-73
2022/03/17 05:03:21;;;;;;;26.53;23.63;;;;;;;;;;5069862;28;20234;-73
2022/03/17 05:05:48;;;;;;;28.57;23.37;;;;;;;;;;5068116;28;20193;-73
2022/03/17 05:08:14;;;;;;;29.90;23.50;;;;;;;;;;5067772;28;20177;-73
2022/03/17 05:10:41;;;;;;;26.53;21.00;;;;;;;;;;5055771;28;20318;-73
2022/03/17 05:13:07;;;;;;;26.97;22.93;;;;;;;;;;5070567;28;20177;-73
2022/03/17 05:15:34;;;;;;;25.53;21.80;;;;;;;;;;5070264;28;20196;-73
2022/03/17 05:18:00;;;;;;;25.33;21.57;;;;;;;;;;5069672;28;20663;-73
2022/03/17 05:20:26;;;;;;;25.70;22.83;;;;;;;;;;5068759;28;20179;-73
2022/03/17 05:22:53;;;;;;;25.63;21.33;;;;;;;;;;5067601;28;20213;-73
2022/03/17 05:25:19;;;;;;;23.70;20.37;;;;;;;;;;5067113;28;20301;-73
2022/03/17 05:27:46;;;;;;;25.83;23.03;;;;;;;;;;5069489;28;20180;-73
2022/03/17 05:30:16;;;;;;;26.37;22.83;;;;;;;;;;5068131;28;20182;-73
2022/03/17 05:32:42;;;;;;;31.43;24.97;;;;;;;;;;5069428;28;20212;-73
2022/03/17 05:35:09;;;;;;;29.40;24.93;;;;;;;;;;5069381;28;20197;-73
2022/03/17 05:37:35;;;;;;;27.30;22.87;;;;;;;;;;5067809;28;20208;-73
2022/03/17 05:40:05;;;;;;;26.43;22.30;;;;;;;;;;5068657;28;20201;-73
2022/03/17 05:42:32;;;;;;;30.80;22.77;;;;;;;;;;5065518;28;20284;-73
2022/03/17 05:44:58;;;;;;;26.73;21.20;;;;;;;;;;5066067;28;20213;-73
2022/03/17 05:47:24;;;;;;;26.60;21.53;;;;;;;;;;5069183;28;20660;-72
2022/03/17 05:49:51;;;;;;;26.90;23.33;;;;;;;;;;5065795;28;20285;-73
2022/03/17 05:52:17;;;;;;;25.77;21.03;;;;;;;;;;5051209;28;20201;-73
2022/03/17 05:54:44;;;;;;;26.70;21.37;;;;;;;;;;5070631;28;20558;-73
2022/03/17 05:57:11;;;;;;;25.27;20.77;;;;;;;;;;5069435;28;20652;-73
2022/03/17 05:59:39;;;;;;;23.73;19.43;;;;;;;;;;5065542;28;20208;-73
2022/03/17 06:02:06;;;;;;;23.47;19.77;;;;;;;;;;5063977;28;20245;-74
2022/03/17 06:04:32;;;;;;;27.63;21.83;;;;;;;;;;5063437;28;20178;-75
2022/03/17 06:06:58;;;;;;;26.53;21.00;;;;;;;;;;5063463;28;20200;-76
2022/03/17 06:09:24;;;;;;;25.83;21.43;;;;;;;;;;5063097;28;20223;-77
2022/03/17 06:11:54;;;;;;;26.37;22.60;;;;;;;;;;5063673;28;20547;-76
2022/03/17 06:14:20;;;;;;;23.20;20.70;;;;;;;;;;5068983;28;20196;-77
2022/03/17 06:16:46;;;;;;;25.63;21.90;;;;;;;;;;5070907;28;20562;-75
2022/03/17 06:19:12;;;;;;;28.03;23.07;;;;;;;;;;5073210;28;20189;-76
2022/03/17 06:21:38;;;;;;;27.53;22.13;;;;;;;;;;5072112;28;20575;-74
2022/03/17 06:24:04;;;;;;;27.37;20.97;;;;;;;;;;5071735;28;20201;-77
2022/03/17 06:26:31;;;;;;;25.67;22.10;;;;;;;;;;5071073;28;20291;-77
2022/03/17 06:28:57;;;;;;;28.77;23.03;;;;;;;;;;5068370;28;20177;-77
2022/03/17 06:31:23;;;;;;;25.47;21.47;;;;;;;;;;5064817;28;20205;-75
2022/03/17 06:33:49;;;;;;;28.30;22.60;;;;;;;;;;5070480;28;20196;-76
2022/03/17 06:36:15;;;;;;;25.70;22.33;;;;;;;;;;5068184;28;20184;-76
2022/03/17 06:38:41;;;;;;;25.90;23.10;;;;;;;;;;5071792;28;20185;-75
2022/03/17 06:41:07;;;;;;;30.03;23.53;;;;;;;;;;5071063;28;20257;-80
2022/03/17 06:43:34;;;;;;;24.77;20.33;;;;;;;;;;5088241;28;20195;-76
2022/03/17 06:46:00;;;;;;;25.17;21.90;;;;;;;;;;5085149;28;20209;-76
2022/03/17 06:48:26;;;;;;;27.70;22.13;;;;;;;;;;5058780;28;20189;-76
2022/03/17 06:50:53;;;;;;;26.43;21.23;;;;;;;;;;5070822;28;20209;-76
2022/03/17 06:53:19;;;;;;;25.47;20.67;;;;;;;;;;5072350;28;20189;-74
2022/03/17 06:55:45;;;;;;;25.17;21.50;;;;;;;;;;5067520;28;20237;-75
2022/03/17 06:58:11;;;;;;;25.73;20.97;;;;;;;;;;5069494;28;20192;-76
2022/03/17 07:00:37;;;;;;;23.73;20.50;;;;;;;;;;5067270;28;20197;-77
2022/03/17 07:03:04;;;;;;;25.47;20.33;;;;;;;;;;5067406;28;20461;-75
2022/03/17 07:05:30;;;;;;;27.93;23.03;;;;;;;;;;5071366;28;20205;-74
2022/03/17 07:07:56;;;;;;;26.60;23.13;;;;;;;;;;5068739;28;20192;-75
2022/03/17 07:10:22;;;;;;;25.43;21.63;;;;;;;;;;5070648;28;20186;-75
2022/03/17 07:12:48;;;;;;;26.07;21.17;;;;;;;;;;5069786;28;20234;-74
2022/03/17 07:15:15;;;;;;;26.23;21.60;;;;;;;;;;5072194;28;20178;-74
2022/03/17 07:17:41;;;;;;;26.50;22.00;;;;;;;;;;5070505;28;20552;-75
2022/03/17 07:20:09;;;;;;;25.03;21.87;;;;;;;;;;5071392;28;20181;-75
2022/03/17 07:22:35;;;;;;;26.27;22.63;;;;;;;;;;5070731;28;20262;-74
2022/03/17 07:25:02;;;;;;;25.07;20.63;;;;;;;;;;5051708;28;20760;-75
2022/03/17 07:27:30;;;;;;;27.97;24.23;;;;;;;;;;5071354;28;20254;-75
2022/03/17 07:29:56;;;;;;;28.67;23.70;;;;;;;;;;5067811;28;20267;-74
2022/03/17 07:32:24;;;;;;;32.50;25.43;;;;;;;;;;5068287;28;20231;-74
2022/03/17 07:34:50;;;;;;;31.83;25.33;;;;;;;;;;5052349;28;20196;-74
2022/03/17 07:37:17;;;;;;;32.93;25.37;;;;;;;;;;5070699;28;20204;-75
2022/03/17 07:39:44;;;;;;;33.67;26.10;;;;;;;;;;5069220;28;20181;-74
2022/03/17 07:42:11;;;;;;;34.03;25.83;;;;;;;;;;5070753;28;20204;-74
2022/03/17 07:45:00;;;;;;;27.33;22.87;;;;;;;;;;5068533;28;20213;-77
2022/03/17 07:47:48;;;;;;;28.87;23.40;;;;;;;;;;5068586;28;20196;-74
2022/03/17 07:50:15;;;;;;;26.43;22.50;;;;;;;;;;5068561;28;20185;-74
2022/03/17 07:52:41;;;;;;;27.57;23.90;;;;;;;;;;5068249;28;20740;-75
2022/03/17 07:55:08;;;;;;;25.57;21.20;;;;;;;;;;5069311;28;20193;-77
2022/03/17 07:57:35;;;;;;;28.17;23.20;;;;;;;;;;5070772;28;20185;-77
2022/03/17 08:00:02;;;;;;;29.57;24.87;;;;;;;;;;5067928;28;20191;-74
2022/03/17 08:02:29;;;;;;;29.77;25.07;;;;;;;;;;5067304;28;20205;-75
2022/03/17 08:04:55;;;;;;;27.17;23.10;;;;;;;;;;5076161;28;20842;-75
2022/03/17 08:07:22;;;;;;;28.10;24.90;;;;;;;;;;5069571;28;20247;-76
2022/03/17 08:09:48;;;;;;;30.53;24.03;;;;;;;;;;5068089;28;20204;-75
2022/03/17 08:12:15;;;;;;;26.33;22.67;;;;;;;;;;5072239;28;20204;-78
2022/03/17 08:14:42;;;;;;;27.13;23.07;;;;;;;;;;5064960;28;20272;-80
2022/03/17 08:17:09;;;;;;;27.80;22.87;;;;;;;;;;5063453;28;20208;-77
2022/03/17 08:19:36;;;;;;;24.53;21.90;;;;;;;;;;5070316;28;20185;-78
2022/03/17 08:22:02;;;;;;;25.33;22.63;;;;;;;;;;5071897;28;20685;-77
2022/03/17 08:24:28;;;;;;;25.03;22.33;;;;;;;;;;5080730;28;20178;-78
2022/03/17 08:26:55;;;;;;;24.00;21.40;;;;;;;;;;5081304;28;20205;-78
2022/03/17 08:29:22;;;;;;;23.67;20.27;;;;;;;;;;5077281;28;20306;-78
2022/03/17 08:31:48;;;;;;;24.43;20.70;;;;;;;;;;5074458;28;20204;-77
2022/03/17 08:34:14;;;;;;;24.87;22.00;;;;;;;;;;5075444;28;20549;-78
2022/03/17 08:36:40;;;;;;;23.60;19.93;;;;;;;;;;5071489;28;20272;-78
2022/03/17 08:39:07;;;;;;;24.30;20.10;;;;;;;;;;5080064;28;20246;-78
2022/03/17 08:41:33;;;;;;;25.40;21.80;;;;;;;;;;5075318;28;20225;-78
2022/03/17 08:43:59;;;;;;;26.80;23.13;;;;;;;;;;5072409;28;20173;-78
2022/03/17 08:49:19;;;;;;;26.47;21.20;;;;;;;;;;5078975;28;20181;-78
2022/03/17 08:51:51;;;;;;;24.10;21.40;;;;;;;;;;5071189;28;20204;-78
2022/03/17 08:54:17;;;;;;;25.53;22.83;;;;;;;;;;5073376;28;20270;-78
2022/03/17 08:56:43;;;;;;;25.00;20.27;;;;;;;;;;5072770;28;20196;-78
2022/03/17 08:59:12;;;;;;;25.53;22.83;;;;;;;;;;5071544;28;20176;-78
2022/03/17 09:01:38;;;;;;;26.30;22.70;;;;;;;;;;5078687;28;20212;-78
2022/03/17 09:04:05;;;;;;;29.23;25.80;;;;;;;;;;5070088;28;20236;-78
2022/03/17 09:06:31;;;;;;;29.83;25.63;;;;;;;;;;5071667;28;20254;-78
2022/03/17 09:08:58;;;;;;;30.70;26.00;;;;;;;;;;5060211;28;20181;-78
2022/03/17 09:11:24;;;;;;;32.53;27.20;;;;;;;;;;5075070;28;20204;-76
2022/03/17 09:13:50;;;;;;;32.33;27.53;;;;;;;;;;5067143;28;20230;-77
2022/03/17 09:16:17;;;;;;;29.83;25.17;;;;;;;;;;5069103;28;20310;-77
2022/03/17 09:18:43;;;;;;;27.77;24.33;;;;;;;;;;5061991;28;20697;-77
2022/03/17 09:21:10;;;;;;;29.17;24.43;;;;;;;;;;5077042;28;20711;-77
2022/03/17 09:23:36;;;;;;;30.63;26.17;;;;;;;;;;5069722;28;20671;-77
2022/03/17 09:26:03;;;;;;;32.37;28.70;;;;;;;;;;5069273;28;20200;-77
2022/03/17 09:28:29;;;;;;;33.27;28.73;;;;;;;;;;5067428;28;20177;-76
2022/03/17 09:30:55;;;;;;;33.57;29.10;;;;;;;;;;5068723;28;20258;-77
2022/03/17 09:33:25;;;;;;;33.53;29.17;;;;;;;;;;5068355;28;20559;-76
2022/03/17 09:35:55;;;;;;;32.37;27.80;;;;;;;;;;5071241;28;20197;-77
2022/03/17 09:38:22;;;;;;;30.80;27.40;;;;;;;;;;5069025;28;20169;-77
2022/03/17 09:40:48;;;;;;;32.70;29.00;;;;;;;;;;5068180;28;20293;-77
2022/03/17 09:43:28;;;;;;;34.20;29.10;;;;;;;;;;5068189;28;20185;-77
2022/03/17 09:45:55;;;;;;;34.17;28.87;;;;;;;;;;5059954;28;20730;-77
2022/03/17 09:48:22;;;;;;;31.83;27.63;;;;;;;;;;5060327;28;20652;-77
2022/03/17 09:50:54;;;;;;;29.60;26.20;;;;;;;;;;5070918;28;20193;-77
2022/03/17 09:53:20;;;;;;;33.03;27.53;;;;;;;;;;5072567;28;20288;-77
2022/03/17 09:55:46;;;;;;;30.43;25.63;;;;;;;;;;5071900;28;20644;-77
2022/03/17 09:58:12;;;;;;;31.47;26.90;;;;;;;;;;5073593;28;20193;-77
2022/03/17 10:00:48;;;;;;;30.93;26.23;;;;;;;;;;5055332;28;20192;-77
2022/03/17 10:03:20;;;;;;;28.70;23.87;;;;;;;;;;5082493;28;20250;-77
2022/03/17 10:05:47;;;;;;;28.23;24.33;;;;;;;;;;5075155;28;20216;-77
2022/03/17 10:08:14;;;;;;;29.73;24.70;;;;;;;;;;5073406;28;20256;-77
2022/03/17 10:10:40;;;;;;;29.43;25.47;;;;;;;;;;5072922;28;20173;-77
2022/03/17 10:13:17;;;;;;;27.90;24.60;;;;;;;;;;5071830;28;20176;-77
2022/03/17 10:15:47;;;;;;;29.93;26.07;;;;;;;;;;5071594;28;20557;-77
2022/03/17 10:18:23;;;;;;;28.43;25.37;;;;;;;;;;5068971;28;20629;-77
2022/03/17 10:21:12;;;;;;;27.73;24.83;;;;;;;;;;5073374;28;20196;-77
2022/03/17 10:23:44;;;;;;;27.07;24.20;;;;;;;;;;5071954;28;20258;-77
2022/03/17 10:26:11;;;;;;;30.50;25.43;;;;;;;;;;5086805;28;20657;-77
2022/03/17 10:28:39;;;;;;;28.30;24.77;;;;;;;;;;5072373;28;20169;-77
2022/03/17 10:31:07;;;;;;;26.57;23.77;;;;;;;;;;5071398;28;20204;-77
2022/03/17 10:33:33;;;;;;;32.10;24.13;;;;;;;;;;5069571;28;20649;-77
2022/03/17 10:36:15;;;;;;;27.73;24.80;;;;;;;;;;5078564;28;20227;-77
2022/03/17 10:38:45;;;;;;;32.30;25.10;;;;;;;;;;5070311;28;20185;-77
2022/03/17 10:41:12;;;;;;;30.37;24.60;;;;;;;;;;5062886;28;20197;-76
2022/03/17 10:43:39;;;;;;;28.17;24.30;;;;;;;;;;5075624;28;20181;-77
2022/03/17 10:46:05;;;;;;;29.47;24.63;;;;;;;;;;5069046;28;20246;-77
2022/03/17 10:48:31;;;;;;;28.77;24.50;;;;;;;;;;5071514;28;20169;-77
2022/03/17 10:50:57;;;;;;;28.60;25.60;;;;;;;;;;5068458;28;20568;-77
2022/03/17 10:53:27;;;;;;;28.70;25.70;;;;;;;;;;5069528;28;20174;-77
2022/03/17 10:56:02;;;;;;;31.07;27.60;;;;;;;;;;5078490;28;20617;-77
2022/03/17 10:58:28;;;;;;;36.60;30.67;;;;;;;;;;5050812;28;20184;-77
2022/03/17 11:00:58;;;;;;;34.20;30.17;;;;;;;;;;5067030;28;20657;-77
2022/03/17 11:03:25;;;;;;;34.03;30.23;;;;;;;;;;5068044;28;20186;-77
2022/03/17 11:05:51;;;;;;;33.20;28.20;;;;;;;;;;5053844;28;20243;-77
2022/03/17 11:08:18;;;;;;;34.07;30.23;;;;;;;;;;5068792;28;20531;-77
2022/03/17 11:10:45;;;;;;;33.40;29.53;;;;;;;;;;5066315;28;20673;-77
2022/03/17 11:13:11;;;;;;;35.57;30.53;;;;;;;;;;5066400;28;20608;-78
2022/03/17 11:15:38;;;;;;;35.37;30.50;;;;;;;;;;5084021;28;21002;-77
2022/03/17 11:18:11;;;;;;;32.97;29.40;;;;;;;;;;5067892;28;20694;-77
2022/03/17 11:20:37;;;;;;;35.17;28.57;;;;;;;;;;5069996;28;20211;-77
2022/03/17 11:23:10;;;;;;;33.10;29.50;;;;;;;;;;5066114;28;20192;-77
2022/03/17 11:25:37;;;;;;;39.23;31.63;;;;;;;;;;5077867;28;20589;-77
2022/03/17 11:28:04;;;;;;;37.57;29.97;;;;;;;;;;5052353;28;20192;-76
2022/03/17 11:30:33;;;;;;;34.97;30.30;;;;;;;;;;5078431;28;20178;-77
2022/03/17 11:33:01;;;;;;;33.50;28.50;;;;;;;;;;5076770;28;20214;-76
2022/03/17 11:35:29;;;;;;;36.63;29.80;;;;;;;;;;5071585;28;20261;-76
2022/03/17 11:38:14;;;;;;;34.30;30.10;;;;;;;;;;5067648;28;20212;-76
2022/03/17 11:40:59;;;;;;;33.37;29.47;;;;;;;;;;5065615;28;20585;-77
2022/03/17 11:43:26;;;;;;;35.87;31.20;;;;;;;;;;5065991;28;20273;-76
2022/03/17 11:46:09;;;;;;;34.57;30.77;;;;;;;;;;5066144;28;20205;-77
2022/03/17 11:48:38;;;;;;;35.43;31.47;;;;;;;;;;5066036;28;20185;-76
2022/03/17 11:51:05;;;;;;;34.30;30.33;;;;;;;;;;5064710;28;20216;-77
2022/03/17 11:53:39;;;;;;;33.03;29.43;;;;;;;;;;5068240;28;20825;-76
2022/03/17 11:56:06;;;;;;;35.50;29.70;;;;;;;;;;5069374;28;20189;-79
2022/03/17 11:58:42;;;;;;;37.60;31.27;;;;;;;;;;5071826;28;20632;-77
2022/03/17 12:01:11;;;;;;;33.90;30.20;;;;;;;;;;5068072;28;20236;-78
2022/03/17 12:03:38;;;;;;;37.63;30.17;;;;;;;;;;5073146;28;20207;-79
2022/03/17 12:06:24;;;;;;;31.73;28.33;;;;;;;;;;5072428;28;20665;-80
2022/03/17 12:08:55;;;;;;;34.43;29.17;;;;;;;;;;5045047;28;20231;-78
2022/03/17 12:11:23;;;;;;;34.67;29.67;;;;;;;;;;5065697;28;20204;-78
2022/03/17 12:14:08;;;;;;;34.97;29.83;;;;;;;;;;5066477;28;20184;-75
2022/03/17 12:16:41;;;;;;;35.23;29.03;;;;;;;;;;5052243;28;20189;-77
2022/03/17 12:19:07;;;;;;;34.53;29.33;;;;;;;;;;5065825;28;20181;-77
2022/03/17 12:21:52;;;;;;;37.80;30.23;;;;;;;;;;5065483;28;20573;-77
2022/03/17 12:24:35;;;;;;;38.77;30.40;;;;;;;;;;5082210;28;20195;-77
2022/03/17 12:27:05;;;;;;;38.57;31.80;;;;;;;;;;5066903;28;21587;-77
2022/03/17 12:29:32;;;;;;;36.77;29.40;;;;;;;;;;5060393;28;20628;-77
2022/03/17 12:32:03;;;;;;;36.00;29.00;;;;;;;;;;5063172;28;20712;-77
2022/03/17 12:34:30;;;;;;;33.53;29.63;;;;;;;;;;5067335;28;20641;-77
2022/03/17 12:37:00;;;;;;;38.33;31.03;;;;;;;;;;5069948;28;20200;-79
2022/03/17 12:39:28;;;;;;;32.60;28.60;;;;;;;;;;5070602;28;20196;-77
2022/03/17 12:41:54;;;;;;;37.27;31.37;;;;;;;;;;5073511;28;20213;-77
2022/03/17 12:44:24;;;;;;;38.43;31.60;;;;;;;;;;5073287;28;20177;-78
2022/03/17 12:46:51;;;;;;;35.17;29.97;;;;;;;;;;5075586;28;20209;-78
2022/03/17 12:49:21;;;;;;;35.17;30.90;;;;;;;;;;5071415;28;20177;-77
2022/03/17 12:51:49;;;;;;;37.03;31.60;;;;;;;;;;5051142;28;20216;-77
2022/03/17 12:54:21;;;;;;;33.63;28.17;;;;;;;;;;5070164;28;20177;-77
2022/03/17 12:56:48;;;;;;;36.07;27.30;;;;;;;;;;5067001;28;20181;-78
2022/03/17 12:59:14;;;;;;;32.50;25.90;;;;;;;;;;5051206;28;20189;-78
2022/03/17 13:01:42;;;;;;;35.07;25.57;;;;;;;;;;5067426;28;20209;-77
2022/03/17 13:04:08;;;;;;;36.37;25.90;;;;;;;;;;5073187;28;20185;-78
2022/03/17 13:06:56;;;;;;;34.23;24.60;;;;;;;;;;5068085;28;20259;-78
2022/03/17 13:09:30;;;;;;;33.87;23.53;;;;;;;;;;5070056;28;20180;-78
2022/03/17 13:14:46;;;;;;;36.33;23.67;;;;;;;;;;5068513;28;20190;-78
2022/03/17 13:17:12;;;;;;;32.27;22.30;;;;;;;;;;5051523;28;20592;-78
2022/03/17 13:19:46;;;;;;;33.23;23.80;;;;;;;;;;5069480;28;20188;-78
2022/03/17 13:22:12;;;;;;;32.57;23.17;;;;;;;;;;5071433;28;20204;-78
2022/03/17 13:24:38;;;;;;;33.97;23.27;;;;;;;;;;5070587;28;20185;-78
2022/03/17 13:27:05;;;;;;;33.30;23.43;;;;;;;;;;5070216;28;20219;-78
2022/03/17 13:29:37;;;;;;;32.00;23.70;;;;;;;;;;5051624;28;20994;-77
2022/03/17 13:32:04;;;;;;;31.53;22.90;;;;;;;;;;5068736;28;20208;-78
2022/03/17 13:34:36;;;;;;;30.20;21.17;;;;;;;;;;5066673;28;20189;-77
2022/03/17 13:37:09;;;;;;;30.30;22.10;;;;;;;;;;5072156;28;20683;-77
2022/03/17 13:39:36;;;;;;;29.47;21.57;;;;;;;;;;5066793;28;20208;-77
2022/03/17 13:42:11;;;;;;;34.07;23.43;;;;;;;;;;5065639;28;20743;-78
2022/03/17 13:44:43;;;;;;;34.50;22.97;;;;;;;;;;5070824;28;20196;-77
2022/03/17 13:47:21;;;;;;;32.90;23.73;;;;;;;;;;5071246;28;20189;-78
2022/03/17 13:50:06;;;;;;;33.43;24.30;;;;;;;;;;5053111;28;20184;-78
2022/03/17 13:52:33;;;;;;;34.57;23.97;;;;;;;;;;5067830;28;20214;-78
2022/03/17 13:54:59;;;;;;;35.27;24.60;;;;;;;;;;5056703;28;20280;-77
2022/03/17 13:57:25;;;;;;;34.27;25.23;;;;;;;;;;5066123;28;20188;-78
2022/03/17 13:59:51;;;;;;;36.27;25.20;;;;;;;;;;5049238;28;20616;-77
2022/03/17 14:02:21;;;;;;;36.27;25.37;;;;;;;;;;5058993;28;20213;-77
2022/03/17 14:04:55;;;;;;;33.03;23.93;;;;;;;;;;5066097;28;20189;-78
2022/03/17 14:07:21;;;;;;;32.60;24.03;;;;;;;;;;5066630;28;20914;-78
2022/03/17 14:09:48;;;;;;;33.77;25.03;;;;;;;;;;5080845;28;20237;-78
2022/03/17 14:12:14;;;;;;;32.17;25.03;;;;;;;;;;5066469;28;20217;-78
2022/03/17 14:14:40;;;;;;;29.80;23.87;;;;;;;;;;5059376;28;20185;-79
2022/03/17 14:17:10;;;;;;;29.97;24.53;;;;;;;;;;5065900;28;22551;-78
2022/03/17 14:19:37;;;;;;;29.90;24.23;;;;;;;;;;5059946;28;20196;-77
2022/03/17 14:24:48;;;;;;;30.07;24.53;;;;;;;;;;5064508;28;20276;-78
2022/03/17 14:27:14;;;;;;;29.10;23.70;;;;;;;;;;5066702;28;20196;-78
2022/03/17 14:29:40;;;;;;;29.33;23.63;;;;;;;;;;5069060;28;20189;-78
2022/03/17 14:32:07;;;;;;;30.27;24.30;;;;;;;;;;5049693;28;20707;-78
2022/03/17 14:34:33;;;;;;;33.10;24.33;;;;;;;;;;5067334;28;20272;-78
2022/03/17 14:37:01;;;;;;;29.20;23.27;;;;;;;;;;5065433;28;20177;-78
2022/03/17 14:39:29;;;;;;;30.07;24.40;;;;;;;;;;5051648;28;20673;-77
2022/03/17 14:41:55;;;;;;;30.20;23.93;;;;;;;;;;5076034;28;20209;-78
2022/03/17 14:44:22;;;;;;;27.67;22.90;;;;;;;;;;5067502;28;20782;-77
2022/03/17 14:46:51;;;;;;;26.77;21.97;;;;;;;;;;5066127;28;20213;-77
2022/03/17 14:49:17;;;;;;;32.90;25.13;;;;;;;;;;5067902;28;20231;-77
2022/03/17 14:51:44;;;;;;;28.07;22.27;;;;;;;;;;5065124;28;20197;-77